Time;durP1;ratioP1;P1;durP2;ratioP2;P2;SDS_P1;SDS_P2;PMS_P1;PMS_P2;Temp;Humidity;BMP_temperature;BMP_pressure;BME280_temperature;BME280_humidity;BME280_pressure;Samples;Min_cycle;Max_cycle;Signal;HPM_P1;HPM_P2
2022/09/05 00:02:34;;;;;;;0.10;0.10;;;;;;;;;;5067318;28;20268;-66
2022/09/05 00:05:12;;;;;;;0.00;0.00;;;;;;;;;;5062433;28;20205;-66
2022/09/05 00:07:40;;;;;;;0.10;0.10;;;;;;;;;;5037440;28;20466;-66
2022/09/05 00:10:12;;;;;;;0.10;0.10;;;;;;;;;;5032724;28;20380;-65
2022/09/05 00:12:39;;;;;;;0.00;0.00;;;;;;;;;;5076722;28;20240;-65
2022/09/05 00:15:18;;;;;;;0.10;0.10;;;;;;;;;;5054764;28;20215;-65
2022/09/05 00:17:49;;;;;;;0.00;0.00;;;;;;;;;;5061862;28;20210;-66
2022/09/05 00:20:20;;;;;;;0.00;0.00;;;;;;;;;;5052813;28;20207;-66
2022/09/05 00:22:49;;;;;;;0.10;0.10;;;;;;;;;;5074889;28;20248;-65
2022/09/05 00:25:26;;;;;;;0.10;0.10;;;;;;;;;;5053013;28;20445;-66
2022/09/05 00:27:56;;;;;;;0.10;0.10;;;;;;;;;;5074800;28;20349;-65
2022/09/05 00:30:22;;;;;;;0.10;0.10;;;;;;;;;;5053911;28;20264;-67
2022/09/05 00:32:55;;;;;;;0.10;0.10;;;;;;;;;;5074615;28;20193;-66
2022/09/05 00:35:31;;;;;;;0.03;0.03;;;;;;;;;;5056309;28;20219;-66
2022/09/05 00:37:58;;;;;;;0.03;0.03;;;;;;;;;;5077567;28;20227;-66
2022/09/05 00:40:28;;;;;;;0.10;0.10;;;;;;;;;;5058562;28;20625;-66
2022/09/05 00:42:57;;;;;;;0.10;0.10;;;;;;;;;;5078408;28;20201;-66
2022/09/05 00:45:27;;;;;;;0.05;0.05;;;;;;;;;;5057898;28;20224;-66
2022/09/05 00:47:58;;;;;;;0.05;0.05;;;;;;;;;;5078158;28;20191;-66
2022/09/05 00:50:27;;;;;;;0.05;0.05;;;;;;;;;;5058167;28;21649;-67
2022/09/05 00:52:56;;;;;;;0.03;0.03;;;;;;;;;;5077944;28;20205;-66
2022/09/05 00:55:25;;;;;;;0.03;0.03;;;;;;;;;;5057634;28;20210;-66
2022/09/05 00:58:00;;;;;;;0.10;0.10;;;;;;;;;;5078479;28;20222;-66
2022/09/05 01:00:34;;;;;;;0.10;0.10;;;;;;;;;;5057858;28;20245;-66
2022/09/05 01:03:08;;;;;;;0.03;0.03;;;;;;;;;;5077059;28;20285;-67
2022/09/05 01:05:49;;;;;;;0.05;0.05;;;;;;;;;;5058694;28;20291;-66
2022/09/05 01:08:23;;;;;;;0.00;0.00;;;;;;;;;;5074877;28;20190;-66
2022/09/05 01:10:53;;;;;;;0.00;0.00;;;;;;;;;;5060451;28;20240;-65
2022/09/05 01:13:29;;;;;;;0.10;0.10;;;;;;;;;;5074473;28;20476;-66
2022/09/05 01:16:00;;;;;;;0.00;0.00;;;;;;;;;;5061640;28;20479;-65
2022/09/05 01:18:32;;;;;;;0.03;0.03;;;;;;;;;;5073270;28;20498;-66
2022/09/05 01:21:04;;;;;;;0.05;0.05;;;;;;;;;;5061899;28;20265;-67
2022/09/05 01:23:51;;;;;;;0.03;0.03;;;;;;;;;;5072612;28;20292;-66
2022/09/05 01:26:33;;;;;;;0.10;0.10;;;;;;;;;;5063861;28;20292;-66
2022/09/05 01:29:04;;;;;;;0.10;0.10;;;;;;;;;;5069285;28;20207;-66
2022/09/05 01:31:33;;;;;;;0.00;0.00;;;;;;;;;;5065451;28;20240;-67
2022/09/05 01:34:03;;;;;;;0.00;0.00;;;;;;;;;;5068901;28;20227;-65
2022/09/05 01:36:37;;;;;;;0.10;0.10;;;;;;;;;;5065422;28;20306;-66
2022/09/05 01:39:08;;;;;;;0.10;0.10;;;;;;;;;;5068396;28;20616;-65
2022/09/05 01:41:39;;;;;;;0.10;0.10;;;;;;;;;;5065736;28;20327;-66
2022/09/05 01:44:19;;;;;;;0.03;0.03;;;;;;;;;;5068103;28;20207;-65
2022/09/05 01:46:52;;;;;;;0.05;0.05;;;;;;;;;;5065791;28;20239;-66
2022/09/05 01:49:24;;;;;;;0.10;0.10;;;;;;;;;;5065978;28;20246;-66
2022/09/05 01:52:07;;;;;;;0.00;0.00;;;;;;;;;;5067983;28;20282;-67
2022/09/05 01:54:37;;;;;;;0.00;0.00;;;;;;;;;;5064556;28;20196;-66
2022/09/05 01:57:07;;;;;;;0.10;0.10;;;;;;;;;;5069421;28;20307;-67
2022/09/05 01:59:38;;;;;;;0.00;0.00;;;;;;;;;;5064513;28;20235;-66
2022/09/05 02:02:15;;;;;;;0.03;0.03;;;;;;;;;;5069405;28;20318;-66
2022/09/05 02:04:56;;;;;;;0.00;0.00;;;;;;;;;;5064527;28;20212;-66
2022/09/05 02:07:27;;;;;;;0.10;0.10;;;;;;;;;;5069347;28;20239;-66
2022/09/05 02:10:01;;;;;;;0.05;0.05;;;;;;;;;;5064510;28;20222;-66
2022/09/05 02:12:30;;;;;;;0.10;0.10;;;;;;;;;;5069265;28;20299;-66
2022/09/05 02:15:00;;;;;;;0.10;0.10;;;;;;;;;;5064372;28;20276;-66
2022/09/05 02:17:33;;;;;;;0.00;0.00;;;;;;;;;;5069043;28;20235;-66
2022/09/05 02:20:02;;;;;;;3.33;3.22;;;;;;;;;;5064317;28;20216;-66
2022/09/05 02:22:33;;;;;;;0.10;0.10;;;;;;;;;;5069010;28;20259;-65
2022/09/05 02:25:03;;;;;;;0.03;0.03;;;;;;;;;;5064263;28;20208;-65
2022/09/05 02:27:33;;;;;;;0.05;0.05;;;;;;;;;;5052112;28;20414;-66
2022/09/05 02:30:08;;;;;;;0.03;0.03;;;;;;;;;;5063520;28;20203;-65
2022/09/05 02:32:47;;;;;;;0.10;0.10;;;;;;;;;;5051977;28;20403;-65
2022/09/05 02:35:18;;;;;;;0.00;0.00;;;;;;;;;;5054723;28;20203;-66
2022/09/05 02:37:45;;;;;;;0.00;0.00;;;;;;;;;;5077092;28;20466;-67
2022/09/05 02:40:16;;;;;;;0.08;0.08;;;;;;;;;;5054399;28;20215;-66
2022/09/05 02:42:46;;;;;;;0.00;0.00;;;;;;;;;;5077295;28;20402;-66
2022/09/05 02:45:20;;;;;;;0.10;0.10;;;;;;;;;;5054505;28;20242;-67
2022/09/05 02:47:50;;;;;;;0.10;0.10;;;;;;;;;;5077102;28;20194;-64
2022/09/05 02:50:28;;;;;;;0.00;0.00;;;;;;;;;;5055096;28;20388;-68
2022/09/05 02:52:56;;;;;;;0.00;0.00;;;;;;;;;;5075491;28;20211;-66
2022/09/05 02:55:26;;;;;;;0.00;0.00;;;;;;;;;;5054923;28;20276;-65
2022/09/05 02:57:57;;;;;;;0.00;0.00;;;;;;;;;;5075483;28;20235;-66
2022/09/05 03:00:30;;;;;;;0.10;0.10;;;;;;;;;;5055639;28;20461;-67
2022/09/05 03:03:09;;;;;;;0.10;0.10;;;;;;;;;;5075515;28;20205;-66
2022/09/05 03:05:38;;;;;;;1.23;1.23;;;;;;;;;;5056792;28;20288;-66
2022/09/05 03:08:13;;;;;;;0.10;0.10;;;;;;;;;;5074324;28;20209;-66
2022/09/05 03:10:54;;;;;;;0.05;0.05;;;;;;;;;;5057095;28;20240;-67
2022/09/05 03:13:33;;;;;;;0.00;0.00;;;;;;;;;;5072030;28;20193;-66
2022/09/05 03:16:18;;;;;;;0.00;0.00;;;;;;;;;;5059722;28;20245;-66
2022/09/05 03:19:06;;;;;;;0.10;0.10;;;;;;;;;;5068702;28;20228;-66
2022/09/05 03:21:47;;;;;;;0.00;0.00;;;;;;;;;;5063521;28;20239;-67
2022/09/05 03:24:31;;;;;;;0.10;0.10;;;;;;;;;;5065195;28;20208;-66
2022/09/05 03:27:12;;;;;;;0.10;0.10;;;;;;;;;;5066684;28;20609;-67
2022/09/05 03:30:11;;;;;;;0.00;0.00;;;;;;;;;;5062876;28;20404;-65
2022/09/05 03:32:53;;;;;;;0.00;0.00;;;;;;;;;;5013359;28;20383;-72
2022/09/05 03:35:37;;;;;;;0.10;0.10;;;;;;;;;;5011189;28;20209;-73
2022/09/05 03:38:30;;;;;;;0.03;0.03;;;;;;;;;;5053460;28;20395;-72
2022/09/05 03:41:06;;;;;;;0.10;0.10;;;;;;;;;;5059045;28;20297;-71
2022/09/05 03:43:45;;;;;;;0.03;0.03;;;;;;;;;;5069892;28;20211;-73
2022/09/05 03:46:17;;;;;;;0.10;0.10;;;;;;;;;;5060371;28;20246;-72
2022/09/05 03:48:54;;;;;;;0.05;0.05;;;;;;;;;;5068869;28;20367;-73
2022/09/05 03:51:38;;;;;;;0.10;0.10;;;;;;;;;;5061796;28;20240;-71
2022/09/05 03:54:17;;;;;;;0.00;0.00;;;;;;;;;;5065785;28;20553;-72
2022/09/05 03:56:55;;;;;;;0.10;0.10;;;;;;;;;;5064389;28;20242;-72
2022/09/05 03:59:42;;;;;;;0.05;0.05;;;;;;;;;;5063477;28;20298;-74
2022/09/05 04:02:11;;;;;;;0.10;0.10;;;;;;;;;;5067107;28;20261;-73
2022/09/05 04:04:43;;;;;;;0.10;0.10;;;;;;;;;;5062425;28;20223;-72
2022/09/05 04:07:11;;;;;;;0.00;0.00;;;;;;;;;;5067481;28;20453;-72
2022/09/05 04:09:44;;;;;;;0.10;0.10;;;;;;;;;;5061269;28;20204;-72
2022/09/05 04:12:16;;;;;;;0.05;0.05;;;;;;;;;;5067373;28;20299;-73
2022/09/05 04:14:46;;;;;;;0.00;0.00;;;;;;;;;;5062507;28;20211;-72
2022/09/05 04:17:20;;;;;;;0.10;0.10;;;;;;;;;;5067237;28;20240;-73
2022/09/05 04:19:49;;;;;;;0.10;0.10;;;;;;;;;;5062457;28;20250;-73
2022/09/05 04:22:17;;;;;;;0.05;0.05;;;;;;;;;;5067557;28;20250;-72
2022/09/05 04:24:48;;;;;;;0.00;0.00;;;;;;;;;;5061792;28;20206;-72
2022/09/05 04:27:27;;;;;;;0.00;0.00;;;;;;;;;;5067347;28;20241;-73
2022/09/05 04:30:00;;;;;;;0.10;0.10;;;;;;;;;;5062441;28;20221;-73
2022/09/05 04:32:36;;;;;;;0.10;0.10;;;;;;;;;;5067346;28;20243;-74
2022/09/05 04:35:10;;;;;;;0.10;0.10;;;;;;;;;;5062337;28;20235;-73
2022/09/05 04:37:41;;;;;;;0.00;0.00;;;;;;;;;;5033726;28;20207;-74
2022/09/05 04:40:28;;;;;;;0.00;0.00;;;;;;;;;;5052015;28;20484;-72
2022/09/05 04:42:57;;;;;;;0.00;0.00;;;;;;;;;;5069104;28;20281;-73
2022/09/05 04:45:24;;;;;;;0.10;0.10;;;;;;;;;;5053848;28;20216;-72
2022/09/05 04:47:54;;;;;;;0.00;0.00;;;;;;;;;;5074788;28;20272;-74
2022/09/05 04:50:22;;;;;;;0.10;0.10;;;;;;;;;;5054001;28;20226;-73
2022/09/05 04:53:03;;;;;;;0.00;0.00;;;;;;;;;;5075143;28;20510;-73
2022/09/05 04:55:33;;;;;;;0.10;0.10;;;;;;;;;;5050963;28;20235;-72
2022/09/05 04:58:04;;;;;;;0.10;0.10;;;;;;;;;;5073930;28;20219;-74
2022/09/05 05:00:34;;;;;;;0.10;0.10;;;;;;;;;;5054757;28;20310;-71
2022/09/05 05:03:01;;;;;;;0.10;0.10;;;;;;;;;;5073579;28;20193;-73
2022/09/05 05:05:31;;;;;;;0.10;0.10;;;;;;;;;;5054391;28;20252;-72
2022/09/05 05:07:59;;;;;;;0.10;0.10;;;;;;;;;;5073791;28;20395;-73
2022/09/05 05:10:30;;;;;;;0.10;0.10;;;;;;;;;;5054123;28;20241;-73
2022/09/05 05:13:04;;;;;;;0.03;0.03;;;;;;;;;;5074007;28;20263;-73
2022/09/05 05:15:33;;;;;;;0.10;0.10;;;;;;;;;;5054588;28;20287;-73
2022/09/05 05:18:04;;;;;;;0.10;0.10;;;;;;;;;;5073616;28;20395;-72
2022/09/05 05:20:35;;;;;;;0.10;0.10;;;;;;;;;;5055024;28;20243;-74
2022/09/05 05:23:02;;;;;;;0.10;0.10;;;;;;;;;;5076587;28;20231;-71
2022/09/05 05:25:29;;;;;;;0.10;0.10;;;;;;;;;;5058144;28;20265;-73
2022/09/05 05:28:03;;;;;;;0.05;0.05;;;;;;;;;;5077095;28;20208;-74
2022/09/05 05:30:31;;;;;;;0.00;0.00;;;;;;;;;;5057746;28;20247;-72
2022/09/05 05:33:02;;;;;;;0.10;0.10;;;;;;;;;;5077076;28;20213;-73
2022/09/05 05:35:30;;;;;;;0.00;0.00;;;;;;;;;;5057519;28;20242;-73
2022/09/05 05:38:09;;;;;;;0.10;0.10;;;;;;;;;;5077050;28;20204;-71
2022/09/05 05:40:39;;;;;;;0.10;0.10;;;;;;;;;;5058346;28;20578;-72
2022/09/05 05:43:13;;;;;;;0.03;0.03;;;;;;;;;;5075643;28;20204;-71
2022/09/05 05:45:40;;;;;;;0.10;0.10;;;;;;;;;;5059004;28;20243;-72
2022/09/05 05:48:24;;;;;;;0.05;0.05;;;;;;;;;;5075241;28;20208;-71
2022/09/05 05:51:02;;;;;;;0.10;0.10;;;;;;;;;;5060342;28;20499;-72
2022/09/05 05:53:32;;;;;;;0.05;0.05;;;;;;;;;;5072952;28;20211;-74
2022/09/05 05:56:11;;;;;;;0.10;0.10;;;;;;;;;;5061299;28;20312;-72
2022/09/05 05:58:52;;;;;;;0.00;0.00;;;;;;;;;;5071297;28;20503;-73
2022/09/05 06:01:35;;;;;;;0.03;0.03;;;;;;;;;;5061735;28;20254;-72
2022/09/05 06:04:15;;;;;;;0.10;0.10;;;;;;;;;;5068660;28;20264;-73
2022/09/05 06:06:50;;;;;;;0.10;0.10;;;;;;;;;;5066486;28;20405;-72
2022/09/05 06:09:49;;;;;;;0.03;0.03;;;;;;;;;;5066505;28;20262;-73
2022/09/05 06:12:34;;;;;;;0.05;0.05;;;;;;;;;;5012686;28;20315;-73
2022/09/05 06:15:24;;;;;;;0.10;0.10;;;;;;;;;;5022512;28;20268;-74
2022/09/05 06:18:08;;;;;;;0.00;0.00;;;;;;;;;;5055917;28;20268;-73
2022/09/05 06:20:53;;;;;;;0.10;0.10;;;;;;;;;;5042004;28;20246;-72
2022/09/05 06:23:45;;;;;;;0.10;0.10;;;;;;;;;;5073270;28;20227;-71
2022/09/05 06:26:31;;;;;;;0.10;0.10;;;;;;;;;;5062258;28;20254;-73
2022/09/05 06:29:02;;;;;;;0.00;0.00;;;;;;;;;;5068522;28;20277;-73
2022/09/05 06:31:39;;;;;;;0.00;0.00;;;;;;;;;;5064622;28;20257;-73
2022/09/05 06:34:32;;;;;;;0.10;0.10;;;;;;;;;;5066926;28;20207;-73
2022/09/05 06:37:05;;;;;;;0.10;0.10;;;;;;;;;;5037395;28;20569;-75
2022/09/05 06:39:43;;;;;;;0.10;0.10;;;;;;;;;;5064070;28;20550;-76
2022/09/05 06:42:19;;;;;;;0.10;0.10;;;;;;;;;;5069425;28;20247;-74
2022/09/05 06:44:52;;;;;;;0.03;0.03;;;;;;;;;;5064423;28;20401;-73
2022/09/05 06:47:19;;;;;;;0.10;0.10;;;;;;;;;;5068900;28;20458;-73
2022/09/05 06:49:54;;;;;;;0.10;0.10;;;;;;;;;;5063764;28;20582;-72
2022/09/05 06:52:39;;;;;;;0.10;0.10;;;;;;;;;;5068698;28;20243;-74
2022/09/05 06:55:19;;;;;;;0.00;0.00;;;;;;;;;;5061452;28;20204;-73
2022/09/05 06:57:58;;;;;;;0.00;0.00;;;;;;;;;;5063200;28;20207;-75
2022/09/05 07:00:29;;;;;;;0.10;0.10;;;;;;;;;;5055741;28;20462;-74
2022/09/05 07:03:03;;;;;;;0.08;0.08;;;;;;;;;;5075362;28;20214;-75
2022/09/05 07:05:34;;;;;;;0.10;0.10;;;;;;;;;;5055939;28;20242;-76
2022/09/05 07:08:04;;;;;;;0.10;0.10;;;;;;;;;;5074632;28;20227;-74
2022/09/05 07:10:34;;;;;;;0.10;0.10;;;;;;;;;;5056275;28;20240;-73
2022/09/05 07:13:06;;;;;;;0.00;0.00;;;;;;;;;;5074626;28;20251;-74
2022/09/05 07:15:38;;;;;;;0.00;0.00;;;;;;;;;;5056572;28;20300;-75
2022/09/05 07:18:11;;;;;;;0.00;0.00;;;;;;;;;;5073916;28;20208;-74
2022/09/05 07:20:43;;;;;;;0.00;0.00;;;;;;;;;;5056365;28;20319;-74
2022/09/05 07:23:12;;;;;;;0.00;0.00;;;;;;;;;;5073169;28;20280;-75
2022/09/05 07:25:41;;;;;;;0.10;0.10;;;;;;;;;;5056579;28;20310;-75
2022/09/05 07:28:11;;;;;;;0.05;0.05;;;;;;;;;;5073318;28;20193;-74
2022/09/05 07:30:39;;;;;;;0.05;0.05;;;;;;;;;;5056460;28;20266;-75
2022/09/05 07:33:06;;;;;;;0.05;0.05;;;;;;;;;;5073329;28;20223;-74
2022/09/05 07:35:34;;;;;;;0.10;0.10;;;;;;;;;;5055947;28;20303;-75
2022/09/05 07:38:03;;;;;;;0.00;0.00;;;;;;;;;;5073550;28;20318;-75
2022/09/05 07:40:30;;;;;;;0.10;0.10;;;;;;;;;;5055399;28;20254;-74
2022/09/05 07:43:02;;;;;;;0.05;0.05;;;;;;;;;;5074452;28;20205;-74
2022/09/05 07:45:31;;;;;;;0.00;0.00;;;;;;;;;;5054073;28;20502;-75
2022/09/05 07:48:00;;;;;;;0.00;0.00;;;;;;;;;;5074530;28;20211;-74
2022/09/05 07:50:27;;;;;;;0.00;0.00;;;;;;;;;;5054493;28;20244;-74
2022/09/05 07:52:55;;;;;;;0.00;0.00;;;;;;;;;;5074639;28;20239;-75
2022/09/05 07:55:25;;;;;;;0.10;0.10;;;;;;;;;;5053910;28;20378;-75
2022/09/05 07:57:54;;;;;;;0.00;0.00;;;;;;;;;;5074781;28;20195;-74
2022/09/05 08:00:24;;;;;;;0.00;0.00;;;;;;;;;;5053480;28;20236;-75
2022/09/05 08:02:52;;;;;;;0.00;0.00;;;;;;;;;;5074828;28;20263;-74
2022/09/05 08:05:20;;;;;;;0.00;0.00;;;;;;;;;;5053891;28;20212;-74
2022/09/05 08:07:49;;;;;;;0.00;0.00;;;;;;;;;;5075355;28;20193;-75
2022/09/05 08:10:19;;;;;;;0.03;0.03;;;;;;;;;;5052804;28;20200;-76
2022/09/05 08:12:48;;;;;;;0.00;0.00;;;;;;;;;;5075554;28;20244;-76
2022/09/05 08:15:17;;;;;;;0.00;0.00;;;;;;;;;;5052597;28;20206;-77
2022/09/05 08:17:51;;;;;;;0.00;0.00;;;;;;;;;;5075666;28;20227;-74
2022/09/05 08:20:24;;;;;;;0.00;0.00;;;;;;;;;;5053089;28;20248;-77
2022/09/05 08:22:56;;;;;;;0.00;0.00;;;;;;;;;;5074431;28;20456;-75
2022/09/05 08:25:26;;;;;;;0.10;0.10;;;;;;;;;;5054030;28;20214;-74
2022/09/05 08:28:05;;;;;;;0.10;0.10;;;;;;;;;;5074704;28;20269;-74
2022/09/05 08:30:36;;;;;;;0.03;0.03;;;;;;;;;;5054917;28;20241;-75
2022/09/05 08:33:10;;;;;;;0.05;0.05;;;;;;;;;;5073454;28;20238;-75
2022/09/05 08:35:40;;;;;;;0.05;0.05;;;;;;;;;;5055462;28;20244;-74
2022/09/05 08:38:07;;;;;;;0.10;0.10;;;;;;;;;;5072994;28;20203;-74
2022/09/05 08:40:37;;;;;;;0.10;0.10;;;;;;;;;;5054876;28;20245;-76
2022/09/05 08:43:10;;;;;;;0.10;0.10;;;;;;;;;;5072985;28;20205;-74
2022/09/05 08:45:39;;;;;;;0.10;0.10;;;;;;;;;;5055500;28;20259;-73
2022/09/05 08:48:12;;;;;;;0.10;0.10;;;;;;;;;;5072878;28;20206;-75
2022/09/05 08:50:44;;;;;;;0.00;0.00;;;;;;;;;;5055335;28;20246;-75
2022/09/05 08:53:15;;;;;;;0.10;0.10;;;;;;;;;;5072129;28;20209;-76
2022/09/05 08:55:44;;;;;;;0.00;0.00;;;;;;;;;;5056925;28;20255;-75
2022/09/05 08:58:34;;;;;;;0.10;0.10;;;;;;;;;;5064277;28;20241;-76
2022/09/05 09:01:05;;;;;;;0.00;0.00;;;;;;;;;;5052002;28;20445;-76
2022/09/05 09:03:43;;;;;;;0.00;0.00;;;;;;;;;;5072945;28;20222;-75
2022/09/05 09:06:14;;;;;;;0.00;0.00;;;;;;;;;;5063334;28;20303;-77
2022/09/05 09:08:46;;;;;;;0.03;0.03;;;;;;;;;;5071920;28;20250;-73
2022/09/05 09:11:22;;;;;;;0.00;0.00;;;;;;;;;;5063544;28;20239;-75
2022/09/05 09:13:52;;;;;;;0.00;0.00;;;;;;;;;;5070902;28;20268;-74
2022/09/05 09:16:26;;;;;;;0.00;0.00;;;;;;;;;;5064313;28;20307;-74
2022/09/05 09:19:04;;;;;;;0.00;0.00;;;;;;;;;;5069969;28;20201;-75
2022/09/05 09:21:35;;;;;;;0.08;0.08;;;;;;;;;;5065452;28;20246;-75
2022/09/05 09:24:08;;;;;;;0.00;0.00;;;;;;;;;;5069202;28;20207;-75
2022/09/05 09:26:37;;;;;;;0.03;0.03;;;;;;;;;;5067019;28;20440;-74
2022/09/05 09:29:05;;;;;;;0.00;0.00;;;;;;;;;;5069064;28;20205;-75
2022/09/05 09:31:53;;;;;;;0.00;0.00;;;;;;;;;;5066478;28;20251;-74
2022/09/05 09:34:36;;;;;;;0.00;0.00;;;;;;;;;;5067517;28;20193;-75
2022/09/05 09:37:19;;;;;;;0.00;0.00;;;;;;;;;;5070442;28;20304;-75
2022/09/05 09:39:57;;;;;;;0.10;0.10;;;;;;;;;;5065453;28;20213;-75
2022/09/05 09:42:30;;;;;;;0.00;0.00;;;;;;;;;;5070584;28;20300;-74
2022/09/05 09:45:16;;;;;;;0.00;0.00;;;;;;;;;;5065498;28;20221;-74
2022/09/05 09:47:51;;;;;;;0.00;0.00;;;;;;;;;;5065207;28;20215;-74
2022/09/05 09:50:23;;;;;;;0.00;0.00;;;;;;;;;;5056390;28;20190;-74
2022/09/05 09:53:11;;;;;;;0.10;0.10;;;;;;;;;;5078281;28;20510;-75
2022/09/05 09:55:57;;;;;;;0.00;0.00;;;;;;;;;;5058258;28;20253;-74
2022/09/05 09:58:38;;;;;;;0.00;0.00;;;;;;;;;;5073285;28;20206;-75
2022/09/05 10:01:12;;;;;;;0.00;0.00;;;;;;;;;;5061592;28;20249;-74
2022/09/05 10:03:49;;;;;;;0.10;0.10;;;;;;;;;;5071115;28;20194;-74
2022/09/05 10:06:37;;;;;;;0.00;0.00;;;;;;;;;;5062757;28;20261;-73
2022/09/05 10:09:09;;;;;;;0.00;0.00;;;;;;;;;;5068012;28;20196;-74
2022/09/05 10:11:39;;;;;;;0.00;0.00;;;;;;;;;;5065744;28;20302;-74
2022/09/05 10:14:17;;;;;;;0.00;0.00;;;;;;;;;;5067587;28;20287;-75
2022/09/05 10:17:02;;;;;;;0.00;0.00;;;;;;;;;;5066600;28;20330;-74
2022/09/05 10:19:38;;;;;;;0.00;0.00;;;;;;;;;;5064487;28;20462;-74
2022/09/05 10:22:15;;;;;;;0.00;0.00;;;;;;;;;;5069195;28;20257;-75
2022/09/05 10:25:03;;;;;;;0.00;0.00;;;;;;;;;;5064051;28;20379;-74
2022/09/05 10:27:38;;;;;;;0.00;0.00;;;;;;;;;;5052503;28;20278;-73
2022/09/05 10:30:19;;;;;;;0.00;0.00;;;;;;;;;;5061358;28;20195;-75
2022/09/05 10:32:57;;;;;;;0.00;0.00;;;;;;;;;;5063373;28;20416;-73
2022/09/05 10:35:25;;;;;;;0.10;0.10;;;;;;;;;;5055819;28;20255;-73
2022/09/05 10:37:58;;;;;;;0.00;0.00;;;;;;;;;;5076230;28;20265;-75
2022/09/05 10:40:27;;;;;;;0.00;0.00;;;;;;;;;;5055953;28;20358;-74
2022/09/05 10:42:58;;;;;;;0.00;0.00;;;;;;;;;;5075965;28;20192;-74
2022/09/05 10:45:28;;;;;;;0.00;0.00;;;;;;;;;;5055976;28;20240;-75
2022/09/05 10:48:00;;;;;;;0.00;0.00;;;;;;;;;;5075781;28;20447;-74
2022/09/05 10:50:28;;;;;;;0.00;0.00;;;;;;;;;;5055667;28;20289;-74
2022/09/05 10:53:03;;;;;;;0.00;0.00;;;;;;;;;;5076003;28;20223;-73
2022/09/05 10:55:32;;;;;;;0.00;0.00;;;;;;;;;;5056028;28;20308;-74
2022/09/05 10:58:01;;;;;;;0.08;0.08;;;;;;;;;;5074812;28;20196;-65
2022/09/05 11:00:38;;;;;;;0.00;0.00;;;;;;;;;;5055214;28;20255;-66
2022/09/05 11:03:06;;;;;;;0.00;0.00;;;;;;;;;;5074260;28;20208;-65
2022/09/05 11:05:36;;;;;;;0.00;0.00;;;;;;;;;;5056289;28;20258;-65
2022/09/05 11:08:07;;;;;;;0.00;0.00;;;;;;;;;;5074410;28;20268;-66
2022/09/05 11:10:35;;;;;;;0.00;0.00;;;;;;;;;;5057029;28;20304;-66
2022/09/05 11:13:14;;;;;;;0.00;0.00;;;;;;;;;;5075430;28;20208;-66
2022/09/05 11:15:49;;;;;;;0.00;0.00;;;;;;;;;;5057863;28;20238;-66
2022/09/05 11:18:21;;;;;;;0.00;0.00;;;;;;;;;;5073349;28;20438;-65
2022/09/05 11:20:49;;;;;;;0.00;0.00;;;;;;;;;;5058769;28;20247;-65
2022/09/05 11:23:20;;;;;;;0.00;0.00;;;;;;;;;;5073308;28;20394;-65
2022/09/05 11:25:47;;;;;;;0.00;0.00;;;;;;;;;;5058363;28;20370;-64
2022/09/05 11:28:16;;;;;;;0.00;0.00;;;;;;;;;;5072800;28;20204;-66
2022/09/05 11:30:44;;;;;;;0.00;0.00;;;;;;;;;;5057061;28;20246;-64
2022/09/05 11:33:27;;;;;;;0.00;0.00;;;;;;;;;;5072494;28;20226;-66
2022/09/05 11:35:55;;;;;;;0.05;0.05;;;;;;;;;;5058325;28;20249;-67
2022/09/05 11:38:50;;;;;;;0.00;0.00;;;;;;;;;;5071499;28;20204;-65
2022/09/05 11:41:38;;;;;;;0.00;0.00;;;;;;;;;;5061180;28;20244;-65
2022/09/05 11:44:23;;;;;;;0.00;0.00;;;;;;;;;;5065932;28;20192;-65
2022/09/05 11:47:05;;;;;;;0.00;0.00;;;;;;;;;;5065675;28;20239;-65
2022/09/05 11:49:56;;;;;;;0.03;0.03;;;;;;;;;;5062268;28;20224;-65
2022/09/05 11:52:41;;;;;;;0.00;0.00;;;;;;;;;;5067553;28;20266;-66
2022/09/05 11:55:24;;;;;;;0.00;0.00;;;;;;;;;;5052606;28;20335;-65
2022/09/05 11:57:59;;;;;;;0.00;0.00;;;;;;;;;;5075266;28;20192;-65
2022/09/05 12:00:32;;;;;;;0.00;0.00;;;;;;;;;;5054236;28;20223;-66
2022/09/05 12:03:13;;;;;;;0.00;0.00;;;;;;;;;;5074618;28;20394;-65
2022/09/05 12:05:51;;;;;;;0.00;0.00;;;;;;;;;;5054720;28;20259;-66
2022/09/05 12:08:23;;;;;;;0.03;0.03;;;;;;;;;;5071890;28;20204;-65
2022/09/05 12:10:59;;;;;;;0.00;0.00;;;;;;;;;;5057600;28;20247;-65
2022/09/05 12:13:41;;;;;;;0.00;0.00;;;;;;;;;;5070701;28;20259;-67
2022/09/05 12:16:18;;;;;;;0.00;0.00;;;;;;;;;;5059984;28;20234;-66
2022/09/05 12:18:49;;;;;;;0.00;0.00;;;;;;;;;;5068339;28;20200;-65
2022/09/05 12:21:27;;;;;;;0.00;0.00;;;;;;;;;;5061085;28;20239;-66
2022/09/05 12:23:57;;;;;;;0.05;0.05;;;;;;;;;;5066844;28;20283;-65
2022/09/05 12:26:27;;;;;;;0.00;0.00;;;;;;;;;;5061967;28;20503;-66
2022/09/05 12:28:57;;;;;;;0.00;0.00;;;;;;;;;;5066914;28;20235;-65
2022/09/05 12:31:27;;;;;;;0.00;0.00;;;;;;;;;;5063850;28;20245;-66
2022/09/05 12:33:54;;;;;;;0.00;0.00;;;;;;;;;;5071455;28;20204;-65
2022/09/05 12:36:34;;;;;;;0.00;0.00;;;;;;;;;;5065157;28;20281;-64
2022/09/05 12:39:02;;;;;;;0.00;0.00;;;;;;;;;;5069936;28;20238;-65
2022/09/05 12:41:36;;;;;;;0.30;0.30;;;;;;;;;;5066419;28;20246;-66
2022/09/05 12:44:23;;;;;;;0.00;0.00;;;;;;;;;;5069318;28;20482;-65
2022/09/05 12:46:55;;;;;;;0.00;0.00;;;;;;;;;;5068930;28;20245;-65
2022/09/05 12:49:27;;;;;;;0.00;0.00;;;;;;;;;;5067365;28;20511;-65
2022/09/05 12:51:56;;;;;;;0.10;0.10;;;;;;;;;;5069164;28;20434;-65
2022/09/05 12:54:25;;;;;;;0.00;0.00;;;;;;;;;;5066441;28;20210;-66
2022/09/05 12:56:55;;;;;;;0.00;0.00;;;;;;;;;;5068959;28;20246;-65
2022/09/05 12:59:24;;;;;;;0.00;0.00;;;;;;;;;;5066999;28;20278;-66
2022/09/05 13:02:01;;;;;;;0.00;0.00;;;;;;;;;;5068402;28;20235;-65
2022/09/05 13:04:29;;;;;;;0.00;0.00;;;;;;;;;;5065930;28;20214;-65
2022/09/05 13:06:56;;;;;;;0.00;0.00;;;;;;;;;;5069135;28;20630;-65
2022/09/05 13:09:25;;;;;;;0.00;0.00;;;;;;;;;;5066501;28;20239;-65
2022/09/05 13:11:58;;;;;;;0.00;0.00;;;;;;;;;;5069024;28;20337;-64
2022/09/05 13:14:35;;;;;;;0.00;0.00;;;;;;;;;;5066156;28;20431;-66
2022/09/05 13:17:04;;;;;;;0.00;0.00;;;;;;;;;;5069817;28;20265;-67
2022/09/05 13:19:36;;;;;;;0.00;0.00;;;;;;;;;;5064968;28;20212;-65
2022/09/05 13:22:02;;;;;;;0.00;0.00;;;;;;;;;;5069655;28;20257;-66
2022/09/05 13:24:33;;;;;;;0.00;0.00;;;;;;;;;;5065325;28;20293;-65
2022/09/05 13:27:04;;;;;;;0.00;0.00;;;;;;;;;;5069241;28;20540;-65
2022/09/05 13:29:36;;;;;;;0.00;0.00;;;;;;;;;;5065290;28;20204;-66
2022/09/05 13:32:08;;;;;;;0.00;0.00;;;;;;;;;;5069555;28;20303;-66
2022/09/05 13:34:39;;;;;;;0.00;0.00;;;;;;;;;;5065042;28;20229;-65
2022/09/05 13:37:09;;;;;;;0.00;0.00;;;;;;;;;;5070110;28;20484;-67
2022/09/05 13:39:39;;;;;;;0.00;0.00;;;;;;;;;;5064998;28;20216;-66
2022/09/05 13:42:06;;;;;;;0.00;0.00;;;;;;;;;;5069786;28;20241;-65
2022/09/05 13:44:41;;;;;;;0.00;0.00;;;;;;;;;;5064736;28;20288;-65
2022/09/05 13:47:10;;;;;;;0.00;0.00;;;;;;;;;;5069623;28;20327;-66
2022/09/05 13:49:43;;;;;;;0.00;0.00;;;;;;;;;;5064659;28;20275;-67
2022/09/05 13:52:24;;;;;;;0.50;0.50;;;;;;;;;;5069909;28;20241;-65
2022/09/05 13:54:58;;;;;;;0.00;0.00;;;;;;;;;;5064538;28;20204;-65
2022/09/05 13:57:31;;;;;;;0.00;0.00;;;;;;;;;;5069510;28;20248;-66
2022/09/05 14:00:17;;;;;;;0.00;0.00;;;;;;;;;;5064423;28;20231;-64
2022/09/05 14:02:49;;;;;;;0.08;0.08;;;;;;;;;;5063446;28;20220;-66
2022/09/05 14:05:24;;;;;;;0.00;0.00;;;;;;;;;;5055386;28;20230;-66
2022/09/05 14:08:15;;;;;;;0.00;0.00;;;;;;;;;;5077318;28;20259;-65
2022/09/05 14:11:05;;;;;;;0.00;0.00;;;;;;;;;;5058398;28;20239;-65
2022/09/05 14:13:33;;;;;;;0.00;0.00;;;;;;;;;;5071757;28;20192;-65
2022/09/05 14:16:02;;;;;;;0.00;0.00;;;;;;;;;;5060929;28;20298;-65
2022/09/05 14:21:14;;;;;;;0.00;0.00;;;;;;;;;;5072003;28;20296;-66
2022/09/05 14:21:17;;;;;;;0.00;0.00;;;;;;;;;;5062917;28;20239;-65
2022/09/05 14:23:47;;;;;;;0.00;0.00;;;;;;;;;;5070173;28;20200;-65
2022/09/05 14:26:17;;;;;;;0.00;0.00;;;;;;;;;;5062538;28;20589;-66
2022/09/05 14:28:49;;;;;;;0.00;0.00;;;;;;;;;;5070188;28;20196;-65
2022/09/05 14:31:19;;;;;;;0.00;0.00;;;;;;;;;;5062679;28;20239;-64
2022/09/05 14:34:00;;;;;;;0.00;0.00;;;;;;;;;;5069795;28;20239;-65
2022/09/05 14:36:33;;;;;;;0.00;0.00;;;;;;;;;;5062027;28;20234;-65
2022/09/05 14:39:19;;;;;;;0.00;0.00;;;;;;;;;;5068061;28;20443;-66
2022/09/05 14:42:11;;;;;;;0.10;0.10;;;;;;;;;;5066070;28;20290;-66
2022/09/05 14:44:51;;;;;;;0.00;0.00;;;;;;;;;;5063241;28;20239;-66
2022/09/05 14:47:45;;;;;;;0.00;0.00;;;;;;;;;;5068497;28;20243;-65
2022/09/05 14:50:38;;;;;;;0.00;0.00;;;;;;;;;;5053919;28;20440;-65
2022/09/05 14:53:06;;;;;;;0.00;0.00;;;;;;;;;;5038915;28;20204;-65
2022/09/05 14:55:33;;;;;;;0.00;0.00;;;;;;;;;;5056642;28;20243;-65
2022/09/05 14:57:59;;;;;;;0.00;0.00;;;;;;;;;;5074624;28;20204;-66
2022/09/05 15:00:28;;;;;;;0.00;0.00;;;;;;;;;;5055701;28;20240;-65
2022/09/05 15:02:55;;;;;;;0.00;0.00;;;;;;;;;;5075385;28;20216;-66
2022/09/05 15:05:34;;;;;;;0.00;0.00;;;;;;;;;;5055044;28;20215;-67
2022/09/05 15:08:02;;;;;;;0.00;0.00;;;;;;;;;;5074608;28;20298;-65
2022/09/05 15:10:34;;;;;;;0.00;0.00;;;;;;;;;;5055858;28;20320;-64
2022/09/05 15:13:02;;;;;;;0.00;0.00;;;;;;;;;;5074731;28;20216;-64
2022/09/05 15:15:30;;;;;;;0.00;0.00;;;;;;;;;;5055964;28;20364;-66
2022/09/05 15:17:59;;;;;;;0.00;0.00;;;;;;;;;;5074696;28;20199;-65
2022/09/05 15:20:29;;;;;;;0.00;0.00;;;;;;;;;;5055158;28;20247;-66
2022/09/05 15:22:56;;;;;;;0.00;0.00;;;;;;;;;;5074613;28;20406;-65
2022/09/05 15:25:25;;;;;;;0.00;0.00;;;;;;;;;;5054485;28;20208;-66